createdAt,value
2018-11-11T00:02:02.681Z,100615.59
2018-11-11T00:04:32.893Z,100612.14
2018-11-11T00:07:01.748Z,100611.58
2018-11-11T00:09:30.309Z,100618.86
2018-11-11T00:11:59.554Z,100620.30
2018-11-11T00:14:28.687Z,100612.75
2018-11-11T00:16:57.290Z,100613.69
2018-11-11T00:19:28.043Z,100607.89
2018-11-11T00:21:57.876Z,100611.75
2018-11-11T00:24:26.563Z,100606.70
2018-11-11T00:26:55.764Z,100604.52
2018-11-11T00:29:24.859Z,100608.40
2018-11-11T00:31:53.908Z,100610.32
2018-11-11T00:34:22.943Z,100609.89
2018-11-11T00:36:51.689Z,100608.84
2018-11-11T00:39:21.841Z,100614.48
2018-11-11T00:41:50.902Z,100609.53
2018-11-11T00:44:19.543Z,100609.36
2018-11-11T00:46:48.430Z,100610.44
2018-11-11T00:49:17.363Z,100615.59
2018-11-11T00:51:46.135Z,100612.63
2018-11-11T00:54:15.132Z,100606.25
2018-11-11T00:56:44.077Z,100608.95
2018-11-11T00:59:13.097Z,100607.20
2018-11-11T01:01:41.690Z,100613.42
2018-11-11T01:04:11.239Z,100616.00
2018-11-11T01:06:39.963Z,100613.87
2018-11-11T01:09:09.034Z,100612.34
2018-11-11T01:11:38.530Z,100618.19
2018-11-11T01:14:07.727Z,100613.19
2018-11-11T01:16:36.753Z,100613.72
2018-11-11T01:19:06.327Z,100626.95
2018-11-11T01:21:35.325Z,100620.98
2018-11-11T01:24:04.223Z,100626.08
2018-11-11T01:26:34.965Z,100620.52
2018-11-11T01:29:03.623Z,100620.20
2018-11-11T01:31:33.124Z,100611.60
2018-11-11T01:34:01.836Z,100617.25
2018-11-11T01:36:30.944Z,100619.81
2018-11-11T01:38:59.696Z,100613.83
2018-11-11T01:41:29.850Z,100619.41
2018-11-11T01:43:59.377Z,100615.30
2018-11-11T01:46:28.347Z,100609.54
2018-11-11T01:48:57.919Z,100610.23
2018-11-11T01:51:28.626Z,100612.00
2018-11-11T01:53:57.379Z,100616.33
2018-11-11T01:56:26.163Z,100614.14
2018-11-11T01:58:54.742Z,100611.41
2018-11-11T02:01:23.814Z,100613.73
2018-11-11T02:03:52.851Z,100609.91
2018-11-11T02:06:21.845Z,100615.92
2018-11-11T02:08:50.576Z,100616.47
2018-11-11T02:11:20.325Z,100620.30
2018-11-11T02:13:49.466Z,100614.33
2018-11-11T02:16:18.412Z,100619.46
2018-11-11T02:18:47.505Z,100614.13
2018-11-11T02:21:16.494Z,100617.00
2018-11-11T02:23:45.243Z,100617.29
2018-11-11T02:26:13.867Z,100614.81
2018-11-11T02:28:42.602Z,100611.00
2018-11-11T02:31:11.555Z,100617.18
2018-11-11T02:33:40.249Z,100617.28
2018-11-11T02:36:09.055Z,100624.48
2018-11-11T02:38:38.119Z,100623.87
2018-11-11T02:41:07.280Z,100619.52
2018-11-11T02:43:36.151Z,100619.17
2018-11-11T02:46:05.129Z,100630.91
2018-11-11T02:48:34.569Z,100623.86
2018-11-11T02:51:03.326Z,100627.84
2018-11-11T02:53:32.088Z,100622.20
2018-11-11T02:56:00.815Z,100620.55
2018-11-11T02:58:29.641Z,100618.11
2018-11-11T03:00:58.396Z,100612.38
2018-11-11T03:03:27.930Z,100620.00
2018-11-11T03:05:56.442Z,100626.02
2018-11-11T03:08:25.275Z,100614.50
2018-11-11T03:10:54.349Z,100610.69
2018-11-11T03:13:23.069Z,100611.26
2018-11-11T03:15:52.026Z,100613.22
2018-11-11T03:18:21.062Z,100615.10
2018-11-11T03:20:49.671Z,100622.03
2018-11-11T03:23:18.341Z,100623.50
2018-11-11T03:25:47.144Z,100631.19
2018-11-11T03:28:15.982Z,100627.37
2018-11-11T03:30:44.703Z,100626.00
2018-11-11T03:33:13.485Z,100623.00
2018-11-11T03:35:42.363Z,100628.98
2018-11-11T03:38:11.109Z,100629.02
2018-11-11T03:40:39.776Z,100626.28
2018-11-11T03:43:08.852Z,100618.95
2018-11-11T03:45:37.605Z,100618.09
2018-11-11T03:48:06.339Z,100620.00
2018-11-11T03:50:35.006Z,100615.06
2018-11-11T03:53:03.837Z,100614.57
2018-11-11T03:55:32.463Z,100623.45
2018-11-11T03:58:01.065Z,100626.38
2018-11-11T04:00:29.767Z,100638.97
2018-11-11T04:02:58.966Z,100642.19
2018-11-11T04:05:27.646Z,100650.13
2018-11-11T04:07:56.151Z,100654.97
2018-11-11T04:10:24.911Z,100650.09
2018-11-11T04:12:53.932Z,100656.00
2018-11-11T04:15:22.702Z,100655.39
2018-11-11T04:17:51.527Z,100655.73
2018-11-11T04:20:21.253Z,100655.30
2018-11-11T04:22:49.942Z,100652.90
2018-11-11T04:25:19.552Z,100657.13
2018-11-11T04:27:48.057Z,100658.05
2018-11-11T04:30:16.864Z,100655.58
2018-11-11T04:32:45.913Z,100664.77
2018-11-11T04:35:14.760Z,100656.02
2018-11-11T04:37:43.467Z,100657.91
2018-11-11T04:40:12.991Z,100661.71
2018-11-11T04:42:42.034Z,100654.94
2018-11-11T04:45:12.997Z,100653.52
2018-11-11T04:47:41.542Z,100653.27
2018-11-11T04:50:12.702Z,100650.81
2018-11-11T04:52:42.022Z,100648.52
2018-11-11T04:55:11.338Z,100642.87
2018-11-11T04:57:40.126Z,100652.84
2018-11-11T05:03:05.932Z,100654.06
2018-11-11T05:05:34.654Z,100649.84
2018-11-11T05:08:03.694Z,100651.40
2018-11-11T05:10:32.653Z,100652.20
2018-11-11T05:13:01.385Z,100646.14
2018-11-11T05:15:30.410Z,100661.61
2018-11-11T05:17:58.962Z,100671.34
2018-11-11T05:20:27.851Z,100667.67
2018-11-11T05:22:56.656Z,100670.88
2018-11-11T05:25:25.561Z,100677.45
2018-11-11T05:27:54.486Z,100673.89
2018-11-11T05:30:23.152Z,100669.84
2018-11-11T05:32:52.030Z,100669.67
2018-11-11T05:35:20.929Z,100673.66
2018-11-11T05:37:49.819Z,100677.14
2018-11-11T05:40:18.737Z,100668.41
2018-11-11T05:42:47.558Z,100675.78
2018-11-11T05:45:16.649Z,100677.58
2018-11-11T05:47:45.396Z,100681.39
2018-11-11T05:50:15.550Z,100685.64
2018-11-11T05:52:45.270Z,100671.53
2018-11-11T05:55:13.886Z,100679.77
2018-11-11T05:57:42.947Z,100681.25
2018-11-11T06:00:13.600Z,100686.00
2018-11-11T06:02:42.293Z,100672.14
2018-11-11T06:05:12.311Z,100674.31
2018-11-11T06:07:41.166Z,100674.31
2018-11-11T06:10:11.461Z,100664.73
2018-11-11T06:12:39.975Z,100668.84
2018-11-11T06:15:10.612Z,100671.83
2018-11-11T06:17:39.418Z,100669.10
2018-11-11T06:20:10.810Z,100665.84
2018-11-11T06:22:39.278Z,100673.39
2018-11-11T06:25:08.058Z,100682.62
2018-11-11T06:27:37.020Z,100679.99
2018-11-11T06:30:06.468Z,100686.60
2018-11-11T06:32:35.236Z,100688.56
2018-11-11T06:35:04.403Z,100683.73
2018-11-11T06:37:33.191Z,100690.29
2018-11-11T06:40:01.699Z,100687.94
2018-11-11T06:42:30.699Z,100675.11
2018-11-11T06:44:59.557Z,100669.86
2018-11-11T06:47:28.474Z,100669.64
2018-11-11T06:49:57.742Z,100667.46
2018-11-11T06:52:27.413Z,100669.38
2018-11-11T06:55:00.363Z,100667.64
2018-11-11T06:57:29.113Z,100666.02
2018-11-11T06:59:58.050Z,100660.92
2018-11-11T07:02:34.738Z,100662.59
2018-11-11T07:05:03.850Z,100657.37
2018-11-11T07:07:32.755Z,100653.67
2018-11-11T07:10:01.648Z,100649.21
2018-11-11T07:12:30.982Z,100645.35
2018-11-11T07:14:59.609Z,100642.48
2018-11-11T07:17:28.741Z,100645.86
2018-11-11T07:19:58.076Z,100652.20
2018-11-11T07:22:26.866Z,100643.13
2018-11-11T07:24:56.142Z,100638.03
2018-11-11T07:27:24.919Z,100638.89
2018-11-11T07:29:54.133Z,100640.99
2018-11-11T07:32:23.942Z,100636.43
2018-11-11T07:34:54.049Z,100620.48
2018-11-11T07:37:24.175Z,100624.03
2018-11-11T07:39:54.282Z,100635.62
2018-11-11T07:42:24.549Z,100663.64
2018-11-11T07:44:54.217Z,100670.23
2018-11-11T07:47:23.193Z,100659.53
2018-11-11T07:49:52.675Z,100671.27
2018-11-11T07:52:21.970Z,100686.16
2018-11-11T07:54:55.369Z,100668.84
2018-11-11T07:57:24.485Z,100673.96
2018-11-11T07:59:55.251Z,100668.54
2018-11-11T08:02:24.224Z,100665.29
2018-11-11T08:04:53.253Z,100654.66
2018-11-11T08:07:24.043Z,100655.47
2018-11-11T08:09:54.450Z,100652.18
2018-11-11T08:12:23.765Z,100664.71
2018-11-11T08:14:52.474Z,100663.34
2018-11-11T08:17:22.057Z,100653.24
2018-11-11T08:19:51.598Z,100654.63
2018-11-11T08:22:20.974Z,100663.36
2018-11-11T08:24:49.616Z,100667.97
2018-11-11T08:27:19.073Z,100674.80
2018-11-11T08:29:48.378Z,100680.78
2018-11-11T08:32:17.721Z,100681.89
2018-11-11T08:34:48.908Z,100686.20
2018-11-11T08:37:24.199Z,100680.73
2018-11-11T08:39:53.782Z,100691.69
2018-11-11T08:42:23.264Z,100693.34
2018-11-11T08:44:55.450Z,100689.22
2018-11-11T08:47:25.647Z,100697.67
2018-11-11T08:49:55.840Z,100704.24
2018-11-11T08:52:27.717Z,100694.12
2018-11-11T08:54:57.162Z,100691.95
2018-11-11T08:57:30.488Z,100693.56
2018-11-11T09:00:02.034Z,100697.41
2018-11-11T09:02:30.994Z,100706.39
2018-11-11T09:05:01.491Z,100707.80
2018-11-11T09:07:30.414Z,100712.69
2018-11-11T09:10:01.136Z,100717.63
2018-11-11T09:12:32.280Z,100719.52
2018-11-11T09:15:09.457Z,100740.27
2018-11-11T09:17:47.614Z,100730.18
2018-11-11T09:20:18.069Z,100730.18
2018-11-11T09:22:49.255Z,100722.00
2018-11-11T09:25:19.458Z,100731.01
2018-11-11T09:27:48.726Z,100720.85
2018-11-11T09:30:19.406Z,100732.03
2018-11-11T09:32:49.835Z,100738.86
2018-11-11T09:35:19.331Z,100737.76
2018-11-11T09:37:48.491Z,100748.13
2018-11-11T09:40:17.782Z,100737.48
2018-11-11T09:42:46.522Z,100740.73
2018-11-11T09:45:17.605Z,100737.47
2018-11-11T09:47:48.272Z,100739.06
2018-11-11T09:50:18.102Z,100746.72
2018-11-11T09:52:49.582Z,100757.63
2018-11-11T09:55:26.332Z,100759.55
2018-11-11T09:58:01.139Z,100758.55
2018-11-11T10:00:35.179Z,100768.94
2018-11-11T10:03:09.373Z,100772.97
2018-11-11T10:05:54.836Z,100768.28
2018-11-11T10:08:34.641Z,100767.64
2018-11-11T10:11:13.466Z,100762.52
2018-11-11T10:13:53.189Z,100765.20
2018-11-11T10:16:38.612Z,100764.13
2018-11-11T10:19:28.831Z,100759.45
2018-11-11T10:22:04.580Z,100760.28
2018-11-11T10:24:46.708Z,100761.94
2018-11-11T10:27:33.349Z,100764.66
2018-11-11T10:30:18.591Z,100768.48
2018-11-11T10:33:46.971Z,100769.34
2018-11-11T10:36:54.978Z,100768.53
2018-11-11T10:40:44.951Z,100772.06
2018-11-11T10:46:58.340Z,100774.77
2018-11-11T10:49:47.502Z,100778.61
2018-11-11T10:52:28.079Z,100780.25
2018-11-11T10:55:04.343Z,100779.40
2018-11-11T10:57:47.179Z,100784.81
2018-11-11T11:00:25.558Z,100795.73
2018-11-11T11:03:01.156Z,100800.69
2018-11-11T11:05:37.192Z,100802.03
2018-11-11T11:08:11.041Z,100803.67
2018-11-11T11:10:48.911Z,100814.07
2018-11-11T11:13:28.302Z,100821.50
2018-11-11T11:16:00.230Z,100825.89
2018-11-11T11:21:22.586Z,100819.30
2018-11-11T11:24:02.886Z,100825.56
2018-11-11T11:26:37.050Z,100822.83
2018-11-11T11:29:15.504Z,100827.20
2018-11-11T11:31:50.395Z,100824.74
2018-11-11T11:34:29.525Z,100824.71
2018-11-11T11:37:02.052Z,100814.31
2018-11-11T11:39:42.642Z,100816.78
2018-11-11T11:42:20.386Z,100804.73
2018-11-11T11:44:54.462Z,100807.75
2018-11-11T11:47:37.287Z,100804.46
2018-11-11T11:50:10.288Z,100803.34
2018-11-11T11:52:47.339Z,100805.53
2018-11-11T11:55:20.493Z,100807.69
2018-11-11T11:58:08.011Z,100806.59
2018-11-11T12:00:48.071Z,100805.26
2018-11-11T12:03:36.591Z,100814.26
2018-11-11T12:06:10.473Z,100811.52
2018-11-11T12:08:46.521Z,100827.37
2018-11-11T12:11:37.416Z,100814.78
2018-11-11T12:14:10.431Z,100803.06
2018-11-11T12:16:40.989Z,100799.48
2018-11-11T12:19:17.112Z,100790.63
2018-11-11T12:21:51.719Z,100780.49
2018-11-11T12:24:24.662Z,100778.53
2018-11-11T12:27:11.416Z,100778.57
2018-11-11T12:29:44.373Z,100786.67
2018-11-11T12:32:17.495Z,100793.36
2018-11-11T12:34:47.204Z,100770.39
2018-11-11T12:37:19.967Z,100767.89
2018-11-11T12:39:56.484Z,100775.48
2018-11-11T12:42:27.250Z,100765.98
2018-11-11T12:44:57.276Z,100772.51
2018-11-11T12:47:32.210Z,100770.92
2018-11-11T12:50:04.833Z,100770.05
2018-11-11T12:52:39.167Z,100770.10
2018-11-11T12:55:17.514Z,100773.28
2018-11-11T12:57:51.258Z,100771.61
2018-11-11T13:00:24.217Z,100763.83
2018-11-11T13:03:04.831Z,100763.52
2018-11-11T13:05:37.339Z,100755.38
2018-11-11T13:08:16.021Z,100753.23
2018-11-11T13:10:46.697Z,100761.05
2018-11-11T13:13:18.656Z,100766.76
2018-11-11T13:15:51.653Z,100764.34
2018-11-11T13:18:27.964Z,100745.23
2018-11-11T13:21:03.703Z,100752.65
2018-11-11T13:23:40.389Z,100776.56
2018-11-11T13:26:16.432Z,100762.28
2018-11-11T13:28:54.831Z,100777.99
2018-11-11T13:31:37.533Z,100788.59
2018-11-11T13:34:13.403Z,100793.61
2018-11-11T13:36:54.629Z,100790.94
2018-11-11T13:39:41.154Z,100783.51
2018-11-11T13:42:19.743Z,100798.19
2018-11-11T13:44:54.009Z,100802.52
2018-11-11T13:47:28.838Z,100800.78
2018-11-11T13:50:00.862Z,100793.34
2018-11-11T13:52:37.828Z,100794.16
2018-11-11T13:55:14.776Z,100794.11
2018-11-11T13:57:46.843Z,100804.08
2018-11-11T14:00:27.705Z,100810.97
2018-11-11T14:03:02.288Z,100807.98
2018-11-11T14:05:35.131Z,100809.17
2018-11-11T14:08:13.058Z,100816.80
2018-11-11T14:10:49.737Z,100821.53
2018-11-11T14:13:23.006Z,100826.50
2018-11-11T14:15:56.789Z,100832.59
2018-11-11T14:18:42.306Z,100839.73
2018-11-11T14:21:16.958Z,100845.22
2018-11-11T14:23:55.395Z,100845.88
2018-11-11T14:26:32.983Z,100850.87
2018-11-11T14:29:12.005Z,100851.68
2018-11-11T14:31:42.839Z,100854.16
2018-11-11T14:34:16.828Z,100860.56
2018-11-11T14:36:47.859Z,100864.18
2018-11-11T14:39:32.210Z,100866.39
2018-11-11T14:42:13.116Z,100870.84
2018-11-11T14:44:48.841Z,100873.10
2018-11-11T14:47:25.429Z,100872.03
2018-11-11T14:50:02.451Z,100874.60
2018-11-11T14:52:36.472Z,100880.93
2018-11-11T14:55:10.562Z,100881.32
2018-11-11T14:57:41.728Z,100886.05
2018-11-11T15:00:26.046Z,100891.86
2018-11-11T15:03:08.967Z,100884.48
2018-11-11T15:05:43.793Z,100877.93
2018-11-11T15:08:17.356Z,100879.38
2018-11-11T15:10:49.838Z,100868.23
2018-11-11T15:13:24.652Z,100865.38
2018-11-11T15:16:04.802Z,100866.81
2018-11-11T15:18:40.459Z,100867.67
2018-11-11T15:21:14.198Z,100867.45
2018-11-11T15:26:24.201Z,100865.32
2018-11-11T15:29:18.798Z,100859.44
2018-11-11T15:31:50.378Z,100861.41
2018-11-11T15:34:25.861Z,100857.30
2018-11-11T15:37:01.355Z,100856.57
2018-11-11T15:39:41.391Z,100869.18
2018-11-11T15:42:16.128Z,100878.23
2018-11-11T15:44:48.482Z,100888.09
2018-11-11T15:47:19.344Z,100885.95
2018-11-11T15:49:50.262Z,100890.84
2018-11-11T15:52:28.083Z,100887.95
2018-11-11T15:55:00.901Z,100900.57
2018-11-11T15:57:33.264Z,100906.05
2018-11-11T16:00:09.041Z,100912.63
2018-11-11T16:02:44.041Z,100915.41
2018-11-11T16:05:16.988Z,100917.33
2018-11-11T16:07:57.738Z,100913.22
2018-11-11T16:10:37.519Z,100915.67
2018-11-11T16:13:09.742Z,100923.91
2018-11-11T16:15:41.788Z,100918.97
2018-11-11T16:18:15.761Z,100915.45
2018-11-11T16:20:46.449Z,100913.62
2018-11-11T16:23:20.902Z,100909.39
2018-11-11T16:25:58.119Z,100905.16
2018-11-11T16:28:34.120Z,100906.30
2018-11-11T16:33:48.474Z,100895.27
2018-11-11T16:36:18.428Z,100906.30
2018-11-11T16:38:58.365Z,100906.84
2018-11-11T16:41:29.128Z,100904.86
2018-11-11T16:44:02.932Z,100913.66
2018-11-11T16:46:34.093Z,100917.22
2018-11-11T16:49:05.514Z,100910.67
2018-11-11T16:51:38.594Z,100908.20
2018-11-11T16:54:08.540Z,100916.18
2018-11-11T16:56:37.853Z,100914.56
2018-11-11T16:59:12.668Z,100906.90
2018-11-11T17:01:43.529Z,100898.47
2018-11-11T17:04:13.955Z,100907.25
2018-11-11T17:06:47.690Z,100907.67
2018-11-11T17:09:20.274Z,100905.22
2018-11-11T17:11:51.312Z,100897.97
2018-11-11T17:14:20.817Z,100906.72
2018-11-11T17:16:52.527Z,100900.95
2018-11-11T17:19:28.936Z,100904.21
2018-11-11T17:22:02.975Z,100910.54
2018-11-11T17:24:34.941Z,100909.97
2018-11-11T17:27:07.098Z,100913.47
2018-11-11T17:29:41.251Z,100920.64
2018-11-11T17:32:12.321Z,100924.77
2018-11-11T17:34:44.222Z,100930.56
2018-11-11T17:37:14.734Z,100931.02
2018-11-11T17:39:45.173Z,100926.06
2018-11-11T17:42:19.987Z,100923.91
2018-11-11T17:44:52.915Z,100925.03
2018-11-11T17:47:25.655Z,100932.94
2018-11-11T17:50:01.103Z,100939.23
2018-11-11T17:52:32.436Z,100944.17
2018-11-11T17:55:08.757Z,100955.87
2018-11-11T17:57:43.277Z,100966.28
2018-11-11T18:00:20.431Z,100980.05
2018-11-11T18:02:58.076Z,100981.09
2018-11-11T18:05:38.869Z,100985.28
2018-11-11T18:08:12.071Z,100987.75
2018-11-11T18:10:47.509Z,100983.92
2018-11-11T18:13:20.625Z,100984.20
2018-11-11T18:16:08.904Z,100995.17
2018-11-11T18:18:43.785Z,100992.16
2018-11-11T18:21:49.067Z,100997.34
2018-11-11T18:24:23.894Z,100992.98
2018-11-11T18:27:03.436Z,100987.23
2018-11-11T18:29:38.317Z,100990.52
2018-11-11T18:32:11.976Z,100992.44
2018-11-11T18:34:50.950Z,100994.10
2018-11-11T18:37:28.492Z,100994.94
2018-11-11T18:40:01.732Z,100995.75
2018-11-11T18:42:35.623Z,101007.82
2018-11-11T18:45:13.122Z,101002.91
2018-11-11T18:47:45.973Z,101004.83
2018-11-11T18:50:27.197Z,100995.55
2018-11-11T18:53:01.686Z,101002.38
2018-11-11T18:55:34.522Z,101004.00
2018-11-11T18:58:07.370Z,101005.95
2018-11-11T19:00:50.887Z,101000.47
2018-11-11T19:03:23.426Z,101008.95
2018-11-11T19:05:54.809Z,101011.68
2018-11-11T19:08:32.408Z,101002.39
2018-11-11T19:11:21.606Z,101000.19
2018-11-11T19:13:52.470Z,100993.34
2018-11-11T19:16:28.436Z,100993.06
2018-11-11T19:21:52.761Z,101006.65
2018-11-11T19:24:29.637Z,101006.66
2018-11-11T19:27:08.954Z,100999.91
2018-11-11T19:29:48.150Z,101004.75
2018-11-11T19:32:23.962Z,100997.61
2018-11-11T19:35:12.872Z,101003.64
2018-11-11T19:37:48.226Z,100994.38
2018-11-11T19:40:25.302Z,100999.52
2018-11-11T19:43:06.567Z,100996.75
2018-11-11T19:45:43.771Z,101004.96
2018-11-11T19:48:18.737Z,101004.41
2018-11-11T19:50:51.328Z,100996.56
2018-11-11T19:56:14.596Z,100991.45
2018-11-11T19:58:48.807Z,100994.70
2018-11-11T20:01:25.415Z,100990.55
2018-11-11T20:03:58.491Z,101001.45
2018-11-11T20:06:35.565Z,101008.77
2018-11-11T20:09:21.658Z,101021.92
2018-11-11T20:12:03.586Z,101029.70
2018-11-11T20:14:37.973Z,101032.17
2018-11-11T20:17:17.284Z,101033.28
2018-11-11T20:19:54.341Z,101048.86
2018-11-11T20:22:28.961Z,101042.98
2018-11-11T20:25:01.838Z,101038.61
2018-11-11T20:27:34.301Z,101035.64
2018-11-11T20:30:10.083Z,101037.50
2018-11-11T20:35:32.472Z,101053.50
2018-11-11T20:38:08.621Z,101050.37
2018-11-11T20:40:50.619Z,101050.53
2018-11-11T20:43:22.610Z,101055.19
2018-11-11T20:45:57.950Z,101056.03
2018-11-11T20:48:31.964Z,101060.71
2018-11-11T20:51:04.054Z,101065.83
2018-11-11T20:53:35.344Z,101059.55
2018-11-11T20:56:09.258Z,101065.86
2018-11-11T20:58:39.763Z,101073.25
2018-11-11T21:01:13.644Z,101074.44
2018-11-11T21:03:43.955Z,101079.60
2018-11-11T21:06:14.923Z,101086.15
2018-11-11T21:08:45.591Z,101081.05
2018-11-11T21:11:17.960Z,101082.20
2018-11-11T21:13:49.746Z,101087.67
2018-11-11T21:16:22.769Z,101083.88
2018-11-11T21:18:55.057Z,101066.09
2018-11-11T21:21:32.681Z,101066.34
2018-11-11T21:24:08.976Z,101063.05
2018-11-11T21:26:49.975Z,101067.13
2018-11-11T21:29:23.331Z,101072.86
2018-11-11T21:31:58.315Z,101072.56
2018-11-11T21:34:27.804Z,101080.52
2018-11-11T21:36:59.722Z,101078.83
2018-11-11T21:39:32.636Z,101070.07
2018-11-11T21:42:04.592Z,101058.28
2018-11-11T21:44:36.046Z,101045.95
2018-11-11T21:47:07.341Z,101049.27
2018-11-11T21:49:38.189Z,101058.00
2018-11-11T21:52:11.737Z,101050.58
2018-11-11T21:54:43.796Z,101045.92
2018-11-11T21:57:17.175Z,101041.28
2018-11-11T21:59:48.233Z,101037.19
2018-11-11T22:02:19.477Z,101047.31
2018-11-11T22:04:52.710Z,101038.02
2018-11-11T22:07:36.996Z,101039.98
2018-11-11T22:10:10.606Z,101040.27
2018-11-11T22:12:44.522Z,101048.68
2018-11-11T22:15:13.721Z,101057.17
2018-11-11T22:17:50.960Z,101056.38
2018-11-11T22:20:22.850Z,101066.48
2018-11-11T22:22:52.835Z,101081.84
2018-11-11T22:25:24.394Z,101086.78
2018-11-11T22:27:53.796Z,101102.93
2018-11-11T22:30:23.622Z,101112.23
2018-11-11T22:32:53.528Z,101117.44
2018-11-11T22:35:23.282Z,101117.99
2018-11-11T22:37:52.801Z,101117.73
2018-11-11T22:40:22.230Z,101133.59
2018-11-11T22:42:51.302Z,101135.25
2018-11-11T22:45:21.193Z,101141.56
2018-11-11T22:47:52.078Z,101147.59
2018-11-11T22:50:21.519Z,101141.82
2018-11-11T22:52:50.602Z,101142.14
2018-11-11T22:55:23.346Z,101147.61
2018-11-11T22:57:53.775Z,101143.77
2018-11-11T23:00:28.493Z,101151.70
2018-11-11T23:02:58.749Z,101146.78
2018-11-11T23:05:27.884Z,101150.89
2018-11-11T23:07:57.538Z,101150.33
2018-11-11T23:10:27.885Z,101148.67
2018-11-11T23:12:56.449Z,101144.57
2018-11-11T23:15:25.339Z,101156.34
2018-11-11T23:17:54.796Z,101155.25
2018-11-11T23:20:23.988Z,101152.51
2018-11-11T23:22:52.904Z,101156.35
2018-11-11T23:25:21.543Z,101163.21
2018-11-11T23:27:50.713Z,101162.66
2018-11-11T23:30:20.645Z,101157.16
2018-11-11T23:32:49.827Z,101153.08
2018-11-11T23:35:19.014Z,101145.92
2018-11-11T23:37:47.840Z,101145.69
2018-11-11T23:40:17.622Z,101145.14
2018-11-11T23:42:47.062Z,101141.56
2018-11-11T23:45:15.938Z,101145.37
2018-11-11T23:47:46.237Z,101149.48
2018-11-11T23:50:16.227Z,101150.02
2018-11-11T23:52:45.565Z,101149.76
2018-11-11T23:55:16.146Z,101147.86
2018-11-11T23:57:44.759Z,101145.66
